Twenthe, Netherlands
Current Conditions -  °F | °C
As of 4:20 PM on Saturday 25 Oct 2014 (Local Time) from EDDG Reporting Station
Haze Haze  
Wind Chill: 55°   Ceiling: 4000
Heat Index: 55°   Visibility: 2.8mi
Dew Point: 55°   Wind: 6mph
Humidity: 100%   Direction: 200°SSW
Pressure: 30.09"   Gusts: NA
Location:  52.27°N, 6.9°E
Report Text: EDDG 251420Z 20005KT 4500 BR SCT004 BKN040 13/13 Q1019 TEMPO 6000
Loading
Personal Weather Stations






























Interactive Weather Map
Tropical Storm Tracking
New forecast layout! Learn more

10-Day Weather Forecast

Advertisements
Track Severe Weather on mobile